sensor_id;sensor_type;location;lat;lon;timestamp;pressure;altitude;pressure_sealevel;temperature;humidity
70304;BME280;57712;48.752;11.348;2024-02-15T00:01:51;98045.25;;;9.12;100.00
70304;BME280;57712;48.752;11.348;2024-02-15T00:04:18;98040.59;;;9.09;100.00
70304;BME280;57712;48.752;11.348;2024-02-15T00:06:47;98058.94;;;9.09;100.00
70304;BME280;57712;48.752;11.348;2024-02-15T00:09:14;98053.09;;;9.07;100.00
70304;BME280;57712;48.752;11.348;2024-02-15T00:11:41;98065.56;;;9.04;100.00
70304;BME280;57712;48.752;11.348;2024-02-15T00:14:07;98064.81;;;8.96;100.00
70304;BME280;57712;48.752;11.348;2024-02-15T00:16:35;98064.81;;;8.93;100.00
70304;BME280;57712;48.752;11.348;2024-02-15T00:19:05;98056.22;;;8.94;100.00
70304;BME280;57712;48.752;11.348;2024-02-15T00:21:33;98060.53;;;8.92;100.00
70304;BME280;57712;48.752;11.348;2024-02-15T00:24:04;98066.41;;;8.87;100.00
70304;BME280;57712;48.752;11.348;2024-02-15T00:26:31;98065.22;;;8.81;100.00
70304;BME280;57712;48.752;11.348;2024-02-15T00:28:58;98067.19;;;8.77;100.00
70304;BME280;57712;48.752;11.348;2024-02-15T00:31:25;98067.97;;;8.70;100.00
70304;BME280;57712;48.752;11.348;2024-02-15T00:33:52;98067.19;;;8.70;100.00
70304;BME280;57712;48.752;11.348;2024-02-15T00:36:19;98067.59;;;8.64;100.00
70304;BME280;57712;48.752;11.348;2024-02-15T00:38:46;98071.09;;;8.61;100.00
70304;BME280;57712;48.752;11.348;2024-02-15T00:41:13;98065.63;;;8.54;100.00
70304;BME280;57712;48.752;11.348;2024-02-15T00:43:39;98071.09;;;8.54;100.00
70304;BME280;57712;48.752;11.348;2024-02-15T00:46:06;98067.22;;;8.52;100.00
70304;BME280;57712;48.752;11.348;2024-02-15T00:48:32;98078.13;;;8.48;100.00
70304;BME280;57712;48.752;11.348;2024-02-15T00:50:59;98078.16;;;8.55;100.00
70304;BME280;57712;48.752;11.348;2024-02-15T00:53:26;98071.50;;;8.49;100.00
70304;BME280;57712;48.752;11.348;2024-02-15T00:55:53;98076.19;;;8.49;100.00
70304;BME280;57712;48.752;11.348;2024-02-15T00:58:20;98073.06;;;8.54;100.00
70304;BME280;57712;48.752;11.348;2024-02-15T01:00:48;98072.28;;;8.53;100.00
70304;BME280;57712;48.752;11.348;2024-02-15T01:03:15;98069.16;;;8.58;100.00
70304;BME280;57712;48.752;11.348;2024-02-15T01:05:42;98073.44;;;8.59;100.00
70304;BME280;57712;48.752;11.348;2024-02-15T01:08:08;98077.38;;;8.65;100.00
70304;BME280;57712;48.752;11.348;2024-02-15T01:10:35;98069.16;;;8.65;100.00
70304;BME280;57712;48.752;11.348;2024-02-15T01:13:03;98074.22;;;8.63;100.00
70304;BME280;57712;48.752;11.348;2024-02-15T01:15:29;98069.94;;;8.66;100.00
70304;BME280;57712;48.752;11.348;2024-02-15T01:17:56;98068.75;;;8.74;100.00
70304;BME280;57712;48.752;11.348;2024-02-15T01:20:23;98063.28;;;8.78;100.00
70304;BME280;57712;48.752;11.348;2024-02-15T01:22:50;98069.53;;;8.82;100.00
70304;BME280;57712;48.752;11.348;2024-02-15T01:25:18;98067.97;;;8.81;100.00
70304;BME280;57712;48.752;11.348;2024-02-15T01:27:45;98068.75;;;8.78;100.00
70304;BME280;57712;48.752;11.348;2024-02-15T01:30:11;98059.38;;;8.86;100.00
70304;BME280;57712;48.752;11.348;2024-02-15T01:32:41;98053.91;;;8.86;100.00
70304;BME280;57712;48.752;11.348;2024-02-15T01:35:09;98059.75;;;8.88;100.00
70304;BME280;57712;48.752;11.348;2024-02-15T01:37:36;98055.06;;;8.88;100.00
70304;BME280;57712;48.752;11.348;2024-02-15T01:40:04;98049.22;;;8.90;100.00
70304;BME280;57712;48.752;11.348;2024-02-15T01:42:33;98051.56;;;8.88;100.00
70304;BME280;57712;48.752;11.348;2024-02-15T01:44:59;98045.31;;;8.91;100.00
70304;BME280;57712;48.752;11.348;2024-02-15T01:47:27;98041.41;;;8.85;100.00
70304;BME280;57712;48.752;11.348;2024-02-15T01:49:54;98045.69;;;8.93;100.00
70304;BME280;57712;48.752;11.348;2024-02-15T01:52:21;98042.56;;;8.98;100.00
70304;BME280;57712;48.752;11.348;2024-02-15T01:54:48;98048.00;;;9.02;100.00
70304;BME280;57712;48.752;11.348;2024-02-15T01:57:18;98044.13;;;8.99;100.00
70304;BME280;57712;48.752;11.348;2024-02-15T01:59:45;98039.84;;;8.91;100.00
70304;BME280;57712;48.752;11.348;2024-02-15T02:02:14;98028.97;;;8.77;100.00
70304;BME280;57712;48.752;11.348;2024-02-15T02:04:41;98029.34;;;8.72;100.00
70304;BME280;57712;48.752;11.348;2024-02-15T02:07:08;98041.81;;;8.87;100.00
70304;BME280;57712;48.752;11.348;2024-02-15T02:09:35;98042.19;;;8.89;100.00
70304;BME280;57712;48.752;11.348;2024-02-15T02:12:02;98033.97;;;8.96;100.00
70304;BME280;57712;48.752;11.348;2024-02-15T02:14:30;98049.19;;;9.01;100.00
70304;BME280;57712;48.752;11.348;2024-02-15T02:17:10;98041.38;;;8.99;100.00
70304;BME280;57712;48.752;11.348;2024-02-15T02:19:37;98034.75;;;9.00;100.00
70304;BME280;57712;48.752;11.348;2024-02-15T02:22:05;98039.41;;;9.03;100.00
70304;BME280;57712;48.752;11.348;2024-02-15T02:24:44;98032.00;;;9.04;100.00
70304;BME280;57712;48.752;11.348;2024-02-15T02:27:15;98035.94;;;8.99;100.00
70304;BME280;57712;48.752;11.348;2024-02-15T02:29:43;98031.22;;;9.03;100.00
70304;BME280;57712;48.752;11.348;2024-02-15T02:32:12;98024.22;;;8.99;100.00
70304;BME280;57712;48.752;11.348;2024-02-15T02:34:39;98027.72;;;9.03;100.00
70304;BME280;57712;48.752;11.348;2024-02-15T02:37:07;98034.34;;;9.05;100.00
70304;BME280;57712;48.752;11.348;2024-02-15T02:39:34;98033.16;;;9.10;100.00
70304;BME280;57712;48.752;11.348;2024-02-15T02:42:01;98023.41;;;9.05;100.00
70304;BME280;57712;48.752;11.348;2024-02-15T02:44:28;98024.97;;;9.10;100.00
70304;BME280;57712;48.752;11.348;2024-02-15T02:46:55;98034.34;;;9.09;100.00
70304;BME280;57712;48.752;11.348;2024-02-15T02:49:24;98026.53;;;9.07;100.00
70304;BME280;57712;48.752;11.348;2024-02-15T02:51:51;98028.84;;;9.12;100.00
70304;BME280;57712;48.752;11.348;2024-02-15T02:54:18;98032.75;;;9.15;100.00
70304;BME280;57712;48.752;11.348;2024-02-15T02:56:44;98030.03;;;9.11;100.00
70304;BME280;57712;48.752;11.348;2024-02-15T02:59:11;98024.94;;;9.13;100.00
70304;BME280;57712;48.752;11.348;2024-02-15T03:01:39;98028.47;;;9.10;100.00
70304;BME280;57712;48.752;11.348;2024-02-15T03:04:06;98028.06;;;9.15;100.00
70304;BME280;57712;48.752;11.348;2024-02-15T03:06:32;98030.78;;;9.15;100.00
70304;BME280;57712;48.752;11.348;2024-02-15T03:09:00;98027.66;;;9.13;100.00
70304;BME280;57712;48.752;11.348;2024-02-15T03:11:27;98028.84;;;9.12;100.00
70304;BME280;57712;48.752;11.348;2024-02-15T03:13:54;98019.13;;;9.08;100.00
70304;BME280;57712;48.752;11.348;2024-02-15T03:16:23;98023.41;;;9.09;100.00
70304;BME280;57712;48.752;11.348;2024-02-15T03:18:51;98013.25;;;9.09;100.00
70304;BME280;57712;48.752;11.348;2024-02-15T03:21:19;98011.31;;;9.03;100.00
70304;BME280;57712;48.752;11.348;2024-02-15T03:23:46;98024.19;;;9.06;100.00
70304;BME280;57712;48.752;11.348;2024-02-15T03:26:13;98025.75;;;9.10;100.00
70304;BME280;57712;48.752;11.348;2024-02-15T03:28:40;98021.06;;;9.07;100.00
70304;BME280;57712;48.752;11.348;2024-02-15T03:31:08;98024.19;;;9.09;100.00
70304;BME280;57712;48.752;11.348;2024-02-15T03:33:35;98018.72;;;9.09;100.00
70304;BME280;57712;48.752;11.348;2024-02-15T03:36:02;98018.31;;;9.11;100.00
70304;BME280;57712;48.752;11.348;2024-02-15T03:38:29;98021.81;;;9.11;100.00
70304;BME280;57712;48.752;11.348;2024-02-15T03:40:58;98010.91;;;9.11;100.00
70304;BME280;57712;48.752;11.348;2024-02-15T03:43:24;98021.06;;;9.11;100.00
70304;BME280;57712;48.752;11.348;2024-02-15T03:45:51;98018.69;;;9.13;100.00
70304;BME280;57712;48.752;11.348;2024-02-15T03:48:18;98025.72;;;9.14;100.00
70304;BME280;57712;48.752;11.348;2024-02-15T03:50:44;98023.75;;;9.14;100.00
70304;BME280;57712;48.752;11.348;2024-02-15T03:53:11;98023.38;;;9.16;100.00
70304;BME280;57712;48.752;11.348;2024-02-15T03:55:40;98019.84;;;9.15;100.00
70304;BME280;57712;48.752;11.348;2024-02-15T03:58:07;98026.50;;;9.14;100.00
70304;BME280;57712;48.752;11.348;2024-02-15T04:00:35;98022.97;;;9.14;100.00
70304;BME280;57712;48.752;11.348;2024-02-15T04:03:02;98033.53;;;9.15;100.00
70304;BME280;57712;48.752;11.348;2024-02-15T04:05:28;98029.22;;;9.14;100.00
70304;BME280;57712;48.752;11.348;2024-02-15T04:07:56;98029.59;;;9.16;100.00
70304;BME280;57712;48.752;11.348;2024-02-15T04:10:22;98031.56;;;9.19;100.00
70304;BME280;57712;48.752;11.348;2024-02-15T04:12:49;98029.59;;;9.16;100.00
70304;BME280;57712;48.752;11.348;2024-02-15T04:15:16;98029.59;;;9.20;100.00
70304;BME280;57712;48.752;11.348;2024-02-15T04:17:45;98035.06;;;9.20;100.00
70304;BME280;57712;48.752;11.348;2024-02-15T04:20:12;98028.06;;;9.19;100.00
70304;BME280;57712;48.752;11.348;2024-02-15T04:22:41;98029.22;;;9.14;100.00
70304;BME280;57712;48.752;11.348;2024-02-15T04:25:10;98034.34;;;9.09;100.00
70304;BME280;57712;48.752;11.348;2024-02-15T04:27:38;98026.56;;;9.00;100.00
70304;BME280;57712;48.752;11.348;2024-02-15T04:30:06;98034.31;;;9.12;100.00
70304;BME280;57712;48.752;11.348;2024-02-15T04:32:35;98026.88;;;9.16;100.00
70304;BME280;57712;48.752;11.348;2024-02-15T04:35:03;98030.00;;;9.18;100.00
70304;BME280;57712;48.752;11.348;2024-02-15T04:37:34;98028.81;;;9.16;100.00
70304;BME280;57712;48.752;11.348;2024-02-15T04:40:01;98031.59;;;9.12;100.00
70304;BME280;57712;48.752;11.348;2024-02-15T04:42:37;98021.06;;;9.04;100.00
70304;BME280;57712;48.752;11.348;2024-02-15T04:45:08;98015.97;;;9.13;100.00
70304;BME280;57712;48.752;11.348;2024-02-15T04:47:35;98018.66;;;9.16;100.00
70304;BME280;57712;48.752;11.348;2024-02-15T04:50:03;98014.38;;;9.15;100.00
70304;BME280;57712;48.752;11.348;2024-02-15T04:52:32;98021.81;;;9.15;100.00
70304;BME280;57712;48.752;11.348;2024-02-15T04:54:59;98017.13;;;9.15;100.00
70304;BME280;57712;48.752;11.348;2024-02-15T04:57:26;98027.28;;;9.18;100.00
70304;BME280;57712;48.752;11.348;2024-02-15T04:59:55;98019.84;;;9.19;100.00
70304;BME280;57712;48.752;11.348;2024-02-15T05:02:21;98018.66;;;9.16;100.00
70304;BME280;57712;48.752;11.348;2024-02-15T05:04:51;98021.41;;;9.16;100.00
70304;BME280;57712;48.752;11.348;2024-02-15T05:07:23;98016.75;;;9.13;100.00
70304;BME280;57712;48.752;11.348;2024-02-15T05:09:50;98006.22;;;9.08;100.00
70304;BME280;57712;48.752;11.348;2024-02-15T05:12:23;98007.00;;;9.09;100.00
70304;BME280;57712;48.752;11.348;2024-02-15T05:14:52;98012.88;;;9.07;100.00
70304;BME280;57712;48.752;11.348;2024-02-15T05:17:20;98003.50;;;9.01;100.00
70304;BME280;57712;48.752;11.348;2024-02-15T05:19:51;97998.81;;;9.02;100.00
70304;BME280;57712;48.752;11.348;2024-02-15T05:22:18;98001.97;;;9.00;100.00
70304;BME280;57712;48.752;11.348;2024-02-15T05:24:45;98009.78;;;8.98;100.00
70304;BME280;57712;48.752;11.348;2024-02-15T05:27:18;98003.94;;;8.92;100.00
70304;BME280;57712;48.752;11.348;2024-02-15T05:29:44;98009.38;;;8.92;100.00
70304;BME280;57712;48.752;11.348;2024-02-15T05:32:12;98014.88;;;8.89;100.00
70304;BME280;57712;48.752;11.348;2024-02-15T05:34:39;98011.75;;;8.87;100.00
70304;BME280;57712;48.752;11.348;2024-02-15T05:37:07;98016.06;;;8.81;100.00
70304;BME280;57712;48.752;11.348;2024-02-15T05:39:33;98012.56;;;8.77;100.00
70304;BME280;57712;48.752;11.348;2024-02-15T05:42:00;98011.78;;;8.73;100.00
70304;BME280;57712;48.752;11.348;2024-02-15T05:44:27;98016.50;;;8.61;100.00
70304;BME280;57712;48.752;11.348;2024-02-15T05:46:54;98005.94;;;8.63;100.00
70304;BME280;57712;48.752;11.348;2024-02-15T05:49:26;98015.72;;;8.61;100.00
70304;BME280;57712;48.752;11.348;2024-02-15T05:51:58;98018.84;;;8.56;100.00
70304;BME280;57712;48.752;11.348;2024-02-15T05:54:25;98033.66;;;8.51;100.00
70304;BME280;57712;48.752;11.348;2024-02-15T05:56:51;98027.44;;;8.47;100.00
70304;BME280;57712;48.752;11.348;2024-02-15T05:59:20;98025.88;;;8.46;100.00
70304;BME280;57712;48.752;11.348;2024-02-15T06:01:47;98034.44;;;8.41;100.00
70304;BME280;57712;48.752;11.348;2024-02-15T06:04:18;98028.59;;;8.39;100.00
70304;BME280;57712;48.752;11.348;2024-02-15T06:06:45;98029.38;;;8.39;100.00
70304;BME280;57712;48.752;11.348;2024-02-15T06:09:16;98031.34;;;8.39;100.00
70304;BME280;57712;48.752;11.348;2024-02-15T06:11:43;98031.34;;;8.35;100.00
70304;BME280;57712;48.752;11.348;2024-02-15T06:14:12;98031.34;;;8.39;100.00
70304;BME280;57712;48.752;11.348;2024-02-15T06:16:45;98033.69;;;8.37;100.00
70304;BME280;57712;48.752;11.348;2024-02-15T06:19:13;98039.91;;;8.34;100.00
70304;BME280;57712;48.752;11.348;2024-02-15T06:21:41;98043.44;;;8.38;100.00
70304;BME280;57712;48.752;11.348;2024-02-15T06:24:08;98046.16;;;8.38;100.00
70304;BME280;57712;48.752;11.348;2024-02-15T06:26:35;98051.63;;;8.38;100.00
70304;BME280;57712;48.752;11.348;2024-02-15T06:29:02;98052.78;;;8.41;100.00
70304;BME280;57712;48.752;11.348;2024-02-15T06:31:47;98057.09;;;8.38;100.00
70304;BME280;57712;48.752;11.348;2024-02-15T06:34:33;98056.28;;;8.41;100.00
70304;BME280;57712;48.752;11.348;2024-02-15T06:37:37;98057.88;;;8.35;100.00
70304;BME280;57712;48.752;11.348;2024-02-15T06:40:23;98071.91;;;8.37;100.00
70304;BME280;57712;48.752;11.348;2024-02-15T06:42:50;98059.44;;;8.36;100.00
70304;BME280;57712;48.752;11.348;2024-02-15T06:45:17;98067.63;;;8.36;100.00
70304;BME280;57712;48.752;11.348;2024-02-15T06:47:44;98068.78;;;8.42;100.00
70304;BME280;57712;48.752;11.348;2024-02-15T06:50:14;98061.00;;;8.44;100.00
70304;BME280;57712;48.752;11.348;2024-02-15T06:52:41;98064.50;;;8.48;100.00
70304;BME280;57712;48.752;11.348;2024-02-15T06:55:09;98056.31;;;8.48;100.00
70304;BME280;57712;48.752;11.348;2024-02-15T06:57:38;98050.06;;;8.44;100.00
70304;BME280;57712;48.752;11.348;2024-02-15T07:00:09;98053.97;;;8.36;100.00
70304;BME280;57712;48.752;11.348;2024-02-15T07:02:41;98046.16;;;8.49;100.00
70304;BME280;57712;48.752;11.348;2024-02-15T07:05:11;98048.47;;;8.54;100.00
70304;BME280;57712;48.752;11.348;2024-02-15T07:07:38;98052.38;;;8.60;100.00
70304;BME280;57712;48.752;11.348;2024-02-15T07:10:09;98046.91;;;8.63;100.00
70304;BME280;57712;48.752;11.348;2024-02-15T07:12:36;98052.78;;;8.65;100.00
70304;BME280;57712;48.752;11.348;2024-02-15T07:15:05;98039.88;;;8.70;100.00
70304;BME280;57712;48.752;11.348;2024-02-15T07:17:33;98038.69;;;8.74;100.00
70304;BME280;57712;48.752;11.348;2024-02-15T07:20:00;98042.63;;;8.77;100.00
70304;BME280;57712;48.752;11.348;2024-02-15T07:22:27;98036.75;;;8.75;100.00
70304;BME280;57712;48.752;11.348;2024-02-15T07:24:53;98036.34;;;8.80;100.00
70304;BME280;57712;48.752;11.348;2024-02-15T07:27:20;98035.16;;;8.84;100.00
70304;BME280;57712;48.752;11.348;2024-02-15T07:29:49;98041.81;;;8.87;100.00
70304;BME280;57712;48.752;11.348;2024-02-15T07:32:16;98047.28;;;8.87;100.00
70304;BME280;57712;48.752;11.348;2024-02-15T07:34:43;98037.50;;;8.93;100.00
70304;BME280;57712;48.752;11.348;2024-02-15T07:37:12;98046.84;;;8.95;100.00
70304;BME280;57712;48.752;11.348;2024-02-15T07:39:39;98050.72;;;9.05;100.00
70304;BME280;57712;48.752;11.348;2024-02-15T07:42:06;98046.81;;;9.13;100.00
70304;BME280;57712;48.752;11.348;2024-02-15T07:44:35;98049.16;;;9.18;100.00
70304;BME280;57712;48.752;11.348;2024-02-15T07:47:03;98039.72;;;9.30;100.00
70304;BME280;57712;48.752;11.348;2024-02-15T07:49:31;98034.97;;;9.38;100.00
70304;BME280;57712;48.752;11.348;2024-02-15T07:51:58;98045.09;;;9.48;100.00
70304;BME280;57712;48.752;11.348;2024-02-15T07:54:25;98042.78;;;9.50;100.00
70304;BME280;57712;48.752;11.348;2024-02-15T07:56:52;98034.13;;;9.55;100.00
70304;BME280;57712;48.752;11.348;2024-02-15T07:59:19;98032.56;;;9.54;100.00
70304;BME280;57712;48.752;11.348;2024-02-15T08:01:46;98029.38;;;9.66;100.00
70304;BME280;57712;48.752;11.348;2024-02-15T08:04:14;98032.13;;;9.66;100.00
70304;BME280;57712;48.752;11.348;2024-02-15T08:06:43;98035.94;;;9.79;100.00
70304;BME280;57712;48.752;11.348;2024-02-15T08:09:11;98031.44;;;10.14;100.00
70304;BME280;57712;48.752;11.348;2024-02-15T08:11:41;98021.84;;;10.44;100.00
70304;BME280;57712;48.752;11.348;2024-02-15T08:14:08;98022.81;;;11.02;100.00
70304;BME280;57712;48.752;11.348;2024-02-15T08:16:40;98014.47;;;11.46;100.00
70304;BME280;57712;48.752;11.348;2024-02-15T08:19:08;98014.31;;;11.26;100.00
70304;BME280;57712;48.752;11.348;2024-02-15T08:21:40;98011.56;;;11.26;100.00
70304;BME280;57712;48.752;11.348;2024-02-15T08:24:13;98003.91;;;11.72;100.00
70304;BME280;57712;48.752;11.348;2024-02-15T08:26:40;98005.09;;;11.71;100.00
70304;BME280;57712;48.752;11.348;2024-02-15T08:29:08;98002.94;;;11.85;100.00
70304;BME280;57712;48.752;11.348;2024-02-15T08:31:36;97996.59;;;11.92;100.00
70304;BME280;57712;48.752;11.348;2024-02-15T08:34:03;97991.59;;;12.10;100.00
70304;BME280;57712;48.752;11.348;2024-02-15T08:36:32;97987.53;;;12.19;100.00
70304;BME280;57712;48.752;11.348;2024-02-15T08:38:59;97989.63;;;11.84;100.00
70304;BME280;57712;48.752;11.348;2024-02-15T08:41:27;97991.19;;;11.85;100.00
70304;BME280;57712;48.752;11.348;2024-02-15T08:43:55;97994.91;;;11.98;100.00
70304;BME280;57712;48.752;11.348;2024-02-15T08:46:24;97998.75;;;12.04;100.00
70304;BME280;57712;48.752;11.348;2024-02-15T08:48:53;97997.34;;;12.20;100.00
70304;BME280;57712;48.752;11.348;2024-02-15T08:51:20;97995.16;;;12.07;100.00
70304;BME280;57712;48.752;11.348;2024-02-15T08:53:50;97989.66;;;12.07;100.00
70304;BME280;57712;48.752;11.348;2024-02-15T08:56:18;97990.66;;;12.21;100.00
70304;BME280;57712;48.752;11.348;2024-02-15T08:58:45;97992.53;;;12.47;100.00
70304;BME280;57712;48.752;11.348;2024-02-15T09:01:12;97997.94;;;12.54;100.00
70304;BME280;57712;48.752;11.348;2024-02-15T09:03:41;97996.72;;;12.55;100.00
70304;BME280;57712;48.752;11.348;2024-02-15T09:06:08;97991.84;;;12.20;100.00
70304;BME280;57712;48.752;11.348;2024-02-15T09:08:35;97990.09;;;12.53;100.00
70304;BME280;57712;48.752;11.348;2024-02-15T09:11:02;97980.00;;;12.46;100.00
70304;BME280;57712;48.752;11.348;2024-02-15T09:13:31;97984.13;;;12.34;100.00
70304;BME280;57712;48.752;11.348;2024-02-15T09:16:02;97992.19;;;12.22;100.00
70304;BME280;57712;48.752;11.348;2024-02-15T09:18:29;97984.53;;;12.56;100.00
70304;BME280;57712;48.752;11.348;2024-02-15T09:20:56;97974.88;;;12.48;100.00
70304;BME280;57712;48.752;11.348;2024-02-15T09:23:23;97975.63;;;12.49;100.00
70304;BME280;57712;48.752;11.348;2024-02-15T09:25:50;97974.69;;;12.35;100.00
70304;BME280;57712;48.752;11.348;2024-02-15T09:28:20;97973.47;;;12.60;100.00
70304;BME280;57712;48.752;11.348;2024-02-15T09:30:49;97966.16;;;12.53;100.00
70304;BME280;57712;48.752;11.348;2024-02-15T09:33:19;97966.88;;;12.34;100.00
70304;BME280;57712;48.752;11.348;2024-02-15T09:35:46;97963.81;;;12.28;100.00
70304;BME280;57712;48.752;11.348;2024-02-15T09:38:13;97964.97;;;12.74;100.00
70304;BME280;57712;48.752;11.348;2024-02-15T09:40:43;97956.22;;;12.99;100.00
70304;BME280;57712;48.752;11.348;2024-02-15T09:43:10;97951.66;;;12.92;100.00
70304;BME280;57712;48.752;11.348;2024-02-15T09:45:39;97953.34;;;12.86;100.00
70304;BME280;57712;48.752;11.348;2024-02-15T09:48:09;97947.06;;;12.86;100.00
70304;BME280;57712;48.752;11.348;2024-02-15T09:50:39;97949.75;;;13.09;100.00
70304;BME280;57712;48.752;11.348;2024-02-15T09:53:09;97950.31;;;13.20;100.00
70304;BME280;57712;48.752;11.348;2024-02-15T09:55:39;97944.09;;;13.36;100.00
70304;BME280;57712;48.752;11.348;2024-02-15T09:58:08;97948.63;;;13.26;100.00
70304;BME280;57712;48.752;11.348;2024-02-15T10:00:36;97948.19;;;13.64;100.00
70304;BME280;57712;48.752;11.348;2024-02-15T10:03:05;97944.78;;;13.93;100.00
70304;BME280;57712;48.752;11.348;2024-02-15T10:05:32;97950.28;;;14.09;100.00
70304;BME280;57712;48.752;11.348;2024-02-15T10:08:00;97949.25;;;13.70;100.00
70304;BME280;57712;48.752;11.348;2024-02-15T10:10:27;97945.81;;;13.99;100.00
70304;BME280;57712;48.752;11.348;2024-02-15T10:12:55;97944.69;;;13.80;100.00
70304;BME280;57712;48.752;11.348;2024-02-15T10:15:28;97941.34;;;13.89;100.00
70304;BME280;57712;48.752;11.348;2024-02-15T10:17:59;97942.28;;;13.98;100.00
70304;BME280;57712;48.752;11.348;2024-02-15T10:20:28;97936.69;;;14.18;100.00
70304;BME280;57712;48.752;11.348;2024-02-15T10:25:27;97948.28;;;14.87;100.00
70304;BME280;57712;48.752;11.348;2024-02-15T10:28:04;97926.34;;;14.38;100.00
70304;BME280;57712;48.752;11.348;2024-02-15T10:30:35;97928.34;;;14.67;100.00
70304;BME280;57712;48.752;11.348;2024-02-15T10:33:03;97918.34;;;15.15;100.00
70304;BME280;57712;48.752;11.348;2024-02-15T10:35:31;97916.03;;;15.26;100.00
70304;BME280;57712;48.752;11.348;2024-02-15T10:38:11;97926.69;;;15.66;100.00
70304;BME280;57712;48.752;11.348;2024-02-15T10:40:44;97914.28;;;15.57;100.00
70304;BME280;57712;48.752;11.348;2024-02-15T10:43:15;97919.16;;;16.73;100.00
70304;BME280;57712;48.752;11.348;2024-02-15T10:45:43;97919.16;;;16.73;100.00
70304;BME280;57712;48.752;11.348;2024-02-15T10:48:11;97916.72;;;16.97;100.00
70304;BME280;57712;48.752;11.348;2024-02-15T10:50:40;97906.84;;;17.49;99.05
70304;BME280;57712;48.752;11.348;2024-02-15T10:53:28;97906.91;;;18.08;97.97
70304;BME280;57712;48.752;11.348;2024-02-15T10:58:33;97900.28;;;19.15;91.02
70304;BME280;57712;48.752;11.348;2024-02-15T11:01:08;97903.25;;;18.38;91.54
70304;BME280;57712;48.752;11.348;2024-02-15T11:03:47;97897.03;;;17.57;93.25
70304;BME280;57712;48.752;11.348;2024-02-15T11:06:20;97889.09;;;18.45;95.25
70304;BME280;57712;48.752;11.348;2024-02-15T11:08:48;97885.00;;;17.82;92.43
70304;BME280;57712;48.752;11.348;2024-02-15T11:11:15;97887.81;;;17.29;100.00
70304;BME280;57712;48.752;11.348;2024-02-15T11:13:42;97884.06;;;17.85;100.00
70304;BME280;57712;48.752;11.348;2024-02-15T11:16:41;97876.31;;;17.40;96.33
70304;BME280;57712;48.752;11.348;2024-02-15T11:19:10;97868.34;;;17.42;98.71
70304;BME280;57712;48.752;11.348;2024-02-15T11:21:53;97869.16;;;17.61;96.74
70304;BME280;57712;48.752;11.348;2024-02-15T11:24:31;97862.22;;;17.16;97.41
70304;BME280;57712;48.752;11.348;2024-02-15T11:26:59;97865.50;;;18.41;92.82
70304;BME280;57712;48.752;11.348;2024-02-15T11:29:54;97859.91;;;19.38;84.98
70304;BME280;57712;48.752;11.348;2024-02-15T11:32:43;97854.47;;;19.11;90.61
70304;BME280;57712;48.752;11.348;2024-02-15T11:35:13;97856.03;;;17.83;90.50
70304;BME280;57712;48.752;11.348;2024-02-15T11:40:25;97836.69;;;18.38;90.62
70304;BME280;57712;48.752;11.348;2024-02-15T11:42:57;97840.19;;;18.85;86.89
70304;BME280;57712;48.752;11.348;2024-02-15T11:45:27;97835.44;;;18.76;83.39
70304;BME280;57712;48.752;11.348;2024-02-15T11:48:08;97836.22;;;18.77;81.28
70304;BME280;57712;48.752;11.348;2024-02-15T11:50:39;97830.19;;;20.10;75.63
70304;BME280;57712;48.752;11.348;2024-02-15T11:53:07;97831.13;;;19.17;76.73
70304;BME280;57712;48.752;11.348;2024-02-15T11:55:39;97827.38;;;20.73;74.32
70304;BME280;57712;48.752;11.348;2024-02-15T11:58:07;97821.34;;;19.97;75.64
70304;BME280;57712;48.752;11.348;2024-02-15T12:00:34;97815.47;;;20.58;68.55
70304;BME280;57712;48.752;11.348;2024-02-15T12:03:21;97818.56;;;20.89;69.10
70304;BME280;57712;48.752;11.348;2024-02-15T12:06:17;97813.38;;;19.24;76.41
70304;BME280;57712;48.752;11.348;2024-02-15T12:09:03;97815.75;;;20.89;68.76
70304;BME280;57712;48.752;11.348;2024-02-15T12:11:57;97804.31;;;21.31;63.06
70304;BME280;57712;48.752;11.348;2024-02-15T12:14:43;97801.88;;;21.95;63.13
70304;BME280;57712;48.752;11.348;2024-02-15T12:17:29;97798.84;;;20.93;65.17
70304;BME280;57712;48.752;11.348;2024-02-15T12:20:14;97793.41;;;19.68;69.46
70304;BME280;57712;48.752;11.348;2024-02-15T12:22:44;97796.75;;;19.48;74.00
70304;BME280;57712;48.752;11.348;2024-02-15T12:25:16;97790.22;;;19.27;74.99
70304;BME280;57712;48.752;11.348;2024-02-15T12:27:44;97791.63;;;20.03;75.65
70304;BME280;57712;48.752;11.348;2024-02-15T12:30:15;97789.63;;;19.56;76.91
70304;BME280;57712;48.752;11.348;2024-02-15T12:32:43;97785.78;;;20.01;73.98
70304;BME280;57712;48.752;11.348;2024-02-15T12:35:11;97782.66;;;19.60;74.62
70304;BME280;57712;48.752;11.348;2024-02-15T12:37:43;97783.75;;;19.54;74.15
70304;BME280;57712;48.752;11.348;2024-02-15T12:40:17;97781.78;;;20.70;68.67
70304;BME280;57712;48.752;11.348;2024-02-15T12:42:44;97776.28;;;19.93;70.37
70304;BME280;57712;48.752;11.348;2024-02-15T12:45:18;97777.81;;;19.94;70.14
70304;BME280;57712;48.752;11.348;2024-02-15T12:47:52;97766.84;;;19.43;75.15
70304;BME280;57712;48.752;11.348;2024-02-15T12:50:29;97758.22;;;19.08;83.26
70304;BME280;57712;48.752;11.348;2024-02-15T12:52:56;97760.22;;;19.07;78.79
70304;BME280;57712;48.752;11.348;2024-02-15T12:55:30;97756.66;;;19.07;79.94
70304;BME280;57712;48.752;11.348;2024-02-15T12:58:05;97753.69;;;18.86;81.30
70304;BME280;57712;48.752;11.348;2024-02-15T13:00:36;97756.66;;;19.07;78.43
70304;BME280;57712;48.752;11.348;2024-02-15T13:03:07;97747.63;;;18.97;76.46
70304;BME280;57712;48.752;11.348;2024-02-15T13:05:38;97744.38;;;19.79;77.50
70304;BME280;57712;48.752;11.348;2024-02-15T13:08:07;97741.34;;;19.44;80.58